createdAt,value
2022-08-31T00:01:08.131Z,92.00
2022-08-31T00:03:50.776Z,92.10
2022-08-31T00:06:22.519Z,92.30
2022-08-31T00:08:55.715Z,92.30
2022-08-31T00:11:31.685Z,92.20
2022-08-31T00:14:04.443Z,92.20
2022-08-31T00:16:37.493Z,92.40
2022-08-31T00:19:08.834Z,92.60
2022-08-31T00:21:39.451Z,92.50
2022-08-31T00:24:12.433Z,92.60
2022-08-31T00:26:43.291Z,92.70
2022-08-31T00:29:14.519Z,92.70
2022-08-31T00:31:47.753Z,92.80
2022-08-31T00:34:18.081Z,92.80
2022-08-31T00:36:48.817Z,93.00
2022-08-31T00:39:21.925Z,93.10
2022-08-31T00:41:52.752Z,93.10
2022-08-31T00:44:24.955Z,93.30
2022-08-31T00:46:55.601Z,93.40
2022-08-31T00:49:29.637Z,93.40
2022-08-31T00:52:03.813Z,93.50
2022-08-31T00:54:39.521Z,93.50
2022-08-31T00:57:11.820Z,93.50
2022-08-31T00:59:44.149Z,93.80
2022-08-31T01:02:14.754Z,93.90
2022-08-31T01:04:45.172Z,94.00
2022-08-31T01:07:16.848Z,93.90
2022-08-31T01:09:55.441Z,94.10
2022-08-31T01:12:28.892Z,94.20
2022-08-31T01:15:00.093Z,94.20
2022-08-31T01:17:30.695Z,94.60
2022-08-31T01:20:05.168Z,94.40
2022-08-31T01:22:41.906Z,94.50
2022-08-31T01:25:16.159Z,94.90
2022-08-31T01:27:47.014Z,94.60
2022-08-31T01:30:24.852Z,94.80
2022-08-31T01:32:55.494Z,95.00
2022-08-31T01:35:25.844Z,95.00
2022-08-31T01:37:57.998Z,95.10
2022-08-31T01:40:36.395Z,95.20
2022-08-31T01:43:07.202Z,95.30
2022-08-31T01:45:38.757Z,95.40
2022-08-31T01:48:09.293Z,95.30
2022-08-31T01:50:39.597Z,95.40
2022-08-31T01:53:10.307Z,95.40
2022-08-31T01:55:43.543Z,95.40
2022-08-31T01:58:13.910Z,95.50
2022-08-31T02:01:28.125Z,95.60
2022-08-31T02:04:06.333Z,95.80
2022-08-31T02:06:37.916Z,95.90
2022-08-31T02:09:09.608Z,95.80
2022-08-31T02:11:43.238Z,95.90
2022-08-31T02:14:14.111Z,96.10
2022-08-31T02:16:44.510Z,96.00
2022-08-31T02:19:15.323Z,96.10
2022-08-31T02:21:45.654Z,96.30
2022-08-31T02:24:16.287Z,96.40
2022-08-31T02:26:53.161Z,96.50
2022-08-31T02:29:25.178Z,96.60
2022-08-31T02:31:55.617Z,96.70
2022-08-31T02:34:29.622Z,96.60
2022-08-31T02:37:00.650Z,96.70
2022-08-31T02:39:31.925Z,96.90
2022-08-31T02:42:04.967Z,96.90
2022-08-31T02:44:35.574Z,97.10
2022-08-31T02:47:06.386Z,97.20
2022-08-31T02:50:04.906Z,97.30
2022-08-31T02:52:35.404Z,97.30
2022-08-31T02:55:05.985Z,97.30
2022-08-31T02:57:38.960Z,97.40
2022-08-31T03:00:11.966Z,97.50
2022-08-31T03:02:42.353Z,97.50
2022-08-31T03:05:14.187Z,97.60
2022-08-31T03:07:45.570Z,97.80
2022-08-31T03:10:16.899Z,97.80
2022-08-31T03:12:50.063Z,97.90
2022-08-31T03:15:22.506Z,98.00
2022-08-31T03:17:53.242Z,98.00
2022-08-31T03:20:28.337Z,98.10
2022-08-31T03:22:59.393Z,98.20
2022-08-31T03:25:30.851Z,98.20
2022-08-31T03:28:04.047Z,98.20
2022-08-31T03:30:38.068Z,98.20
2022-08-31T03:33:17.312Z,98.30
2022-08-31T03:35:47.974Z,98.40
2022-08-31T03:38:20.345Z,98.50
2022-08-31T03:40:51.177Z,98.60
2022-08-31T03:43:24.427Z,98.70
2022-08-31T03:45:55.105Z,98.90
2022-08-31T03:48:25.986Z,99.00
2022-08-31T03:50:56.609Z,99.00
2022-08-31T03:53:32.265Z,99.00
2022-08-31T03:56:09.662Z,99.10
2022-08-31T03:58:47.306Z,99.20
2022-08-31T04:01:39.479Z,99.20
2022-08-31T04:04:30.054Z,99.30
2022-08-31T04:07:42.205Z,99.30
2022-08-31T04:10:33.395Z,99.30
2022-08-31T04:13:28.030Z,99.50
2022-08-31T04:16:23.649Z,99.50
2022-08-31T04:19:31.315Z,99.40
2022-08-31T04:22:17.698Z,99.60
2022-08-31T04:25:10.564Z,99.70
2022-08-31T04:27:41.229Z,99.70
2022-08-31T04:30:13.331Z,99.80
2022-08-31T04:32:46.642Z,99.90
2022-08-31T04:35:17.338Z,99.90
2022-08-31T04:37:48.275Z,99.90
2022-08-31T04:40:25.552Z,99.90
2022-08-31T04:42:57.013Z,99.90
2022-08-31T04:45:28.405Z,99.90
2022-08-31T04:48:01.477Z,99.90
2022-08-31T04:50:32.763Z,99.90
2022-08-31T04:53:12.208Z,99.90
2022-08-31T04:55:44.077Z,99.90
2022-08-31T04:58:17.801Z,99.90
2022-08-31T05:00:48.158Z,99.90
2022-08-31T05:03:53.093Z,99.90
2022-08-31T05:06:25.189Z,99.90
2022-08-31T05:08:58.849Z,99.90
2022-08-31T05:11:30.632Z,99.90
2022-08-31T05:14:03.472Z,99.90
2022-08-31T05:16:37.631Z,99.90
2022-08-31T05:19:11.176Z,99.90
2022-08-31T05:21:43.080Z,99.90
2022-08-31T05:24:16.235Z,99.90
2022-08-31T05:26:51.171Z,99.90
2022-08-31T05:29:24.450Z,99.90
2022-08-31T05:32:04.296Z,99.90
2022-08-31T05:34:40.752Z,99.90
2022-08-31T05:37:11.386Z,99.90
2022-08-31T05:39:41.944Z,99.90
2022-08-31T05:42:15.504Z,99.90
2022-08-31T05:44:46.655Z,99.90
2022-08-31T05:47:17.648Z,99.90
2022-08-31T05:49:50.825Z,99.90
2022-08-31T05:52:25.093Z,99.90
2022-08-31T05:54:57.767Z,99.90
2022-08-31T05:57:28.261Z,99.90
2022-08-31T06:00:00.286Z,99.90
2022-08-31T06:02:31.714Z,99.90
2022-08-31T06:05:04.761Z,99.90
2022-08-31T06:07:35.510Z,99.90
2022-08-31T06:10:09.944Z,99.90
2022-08-31T06:12:44.343Z,99.90
2022-08-31T06:15:18.738Z,99.90
2022-08-31T06:17:49.246Z,99.90
2022-08-31T06:20:22.440Z,99.90
2022-08-31T06:22:52.897Z,99.90
2022-08-31T06:25:33.080Z,99.90
2022-08-31T06:28:05.834Z,99.90
2022-08-31T06:30:54.489Z,99.90
2022-08-31T06:33:26.487Z,99.90
2022-08-31T06:36:25.589Z,99.90
2022-08-31T06:39:17.103Z,99.90
2022-08-31T06:42:20.564Z,99.90
2022-08-31T06:45:04.173Z,99.90
2022-08-31T06:48:01.268Z,99.90
2022-08-31T06:50:33.149Z,99.90
2022-08-31T06:53:07.113Z,99.90
2022-08-31T06:55:56.892Z,99.90
2022-08-31T06:59:08.532Z,99.90
2022-08-31T07:01:59.300Z,99.90
2022-08-31T07:04:38.921Z,99.90
2022-08-31T07:07:12.104Z,99.90
2022-08-31T07:09:52.095Z,99.90
2022-08-31T07:12:23.085Z,99.90
2022-08-31T07:14:57.002Z,99.90
2022-08-31T07:17:29.045Z,99.90
2022-08-31T07:20:00.118Z,99.90
2022-08-31T07:22:30.862Z,99.90
2022-08-31T07:25:23.666Z,99.90
2022-08-31T07:27:55.661Z,99.90
2022-08-31T07:30:33.279Z,99.90
2022-08-31T07:33:07.595Z,99.90
2022-08-31T07:35:43.271Z,99.90
2022-08-31T07:38:34.469Z,99.90
2022-08-31T07:41:28.017Z,99.90
2022-08-31T07:44:00.236Z,99.90
2022-08-31T07:46:33.034Z,99.90
2022-08-31T07:49:09.396Z,99.90
2022-08-31T07:51:56.332Z,99.90
2022-08-31T07:54:50.319Z,99.90
2022-08-31T07:57:37.504Z,99.90
2022-08-31T08:00:11.888Z,99.90
2022-08-31T08:02:52.699Z,99.90
2022-08-31T08:05:37.821Z,99.90
2022-08-31T08:08:27.287Z,99.90
2022-08-31T08:11:25.794Z,99.90
2022-08-31T08:14:21.003Z,99.90
2022-08-31T08:17:10.633Z,99.90
2022-08-31T08:19:52.486Z,99.90
2022-08-31T08:22:50.962Z,99.90
2022-08-31T08:25:43.775Z,99.90
2022-08-31T08:28:40.075Z,99.90
2022-08-31T08:31:23.361Z,99.90
2022-08-31T08:33:55.651Z,99.90
2022-08-31T08:36:27.756Z,99.90
2022-08-31T08:38:59.755Z,99.90
2022-08-31T08:41:37.290Z,99.90
2022-08-31T08:44:17.777Z,99.90
2022-08-31T08:46:57.716Z,99.90
2022-08-31T08:49:44.419Z,99.90
2022-08-31T08:52:22.931Z,99.90
2022-08-31T08:54:56.672Z,99.90
2022-08-31T08:57:31.613Z,99.90
2022-08-31T09:00:11.177Z,99.90
2022-08-31T09:02:58.725Z,99.90
2022-08-31T09:06:02.868Z,99.90
2022-08-31T09:08:55.347Z,99.90
2022-08-31T09:11:35.809Z,99.90
2022-08-31T09:14:19.387Z,99.90
2022-08-31T09:17:02.235Z,99.90
2022-08-31T09:19:55.898Z,99.90
2022-08-31T09:22:27.150Z,99.90
2022-08-31T09:24:59.826Z,99.90
2022-08-31T09:28:03.322Z,99.90
2022-08-31T09:30:43.834Z,99.90
2022-08-31T09:33:21.338Z,99.90
2022-08-31T09:35:56.976Z,99.90
2022-08-31T09:38:33.424Z,99.90
2022-08-31T09:41:08.845Z,99.90
2022-08-31T09:43:41.253Z,99.40
2022-08-31T09:46:17.871Z,99.60
2022-08-31T09:48:52.378Z,99.30
2022-08-31T09:51:30.228Z,99.40
2022-08-31T09:54:19.525Z,99.10
2022-08-31T09:56:58.097Z,99.00
2022-08-31T09:59:44.362Z,98.80
2022-08-31T10:02:31.806Z,98.70
2022-08-31T10:05:06.589Z,98.70
2022-08-31T10:07:48.214Z,98.30
2022-08-31T10:10:28.128Z,98.50
2022-08-31T10:13:05.476Z,98.40
2022-08-31T10:15:42.430Z,98.30
2022-08-31T10:18:18.097Z,98.00
2022-08-31T10:20:55.792Z,98.20
2022-08-31T10:23:37.115Z,97.70
2022-08-31T10:26:13.593Z,97.70
2022-08-31T10:28:51.028Z,97.60
2022-08-31T10:31:26.459Z,97.50
2022-08-31T10:34:15.405Z,97.30
2022-08-31T10:36:47.688Z,97.30
2022-08-31T10:39:31.376Z,97.30
2022-08-31T10:42:05.730Z,97.30
2022-08-31T10:44:42.407Z,97.10
2022-08-31T10:47:22.925Z,97.00
2022-08-31T10:50:05.802Z,97.00
2022-08-31T10:52:43.222Z,96.80
2022-08-31T10:55:29.088Z,96.80
2022-08-31T10:58:08.182Z,96.50
2022-08-31T11:00:48.032Z,96.60
2022-08-31T11:03:28.394Z,96.40
2022-08-31T11:06:03.646Z,96.60
2022-08-31T11:08:50.070Z,96.40
2022-08-31T11:11:37.354Z,96.20
2022-08-31T11:14:45.616Z,95.90
2022-08-31T11:17:32.428Z,96.20
2022-08-31T11:20:22.872Z,96.20
2022-08-31T11:23:42.282Z,96.00
2022-08-31T11:26:48.153Z,96.20
2022-08-31T11:29:41.726Z,95.80
2022-08-31T11:32:20.891Z,95.70
2022-08-31T11:34:55.071Z,95.70
2022-08-31T11:37:57.396Z,95.90
2022-08-31T11:41:00.759Z,95.70
2022-08-31T11:43:49.202Z,95.70
2022-08-31T11:46:34.567Z,95.50
2022-08-31T11:49:11.440Z,95.50
2022-08-31T11:51:49.926Z,95.40
2022-08-31T11:54:43.504Z,95.30
2022-08-31T11:57:17.898Z,95.40
2022-08-31T11:59:51.482Z,95.40
2022-08-31T12:02:45.897Z,95.40
2022-08-31T12:05:58.150Z,95.50
2022-08-31T12:08:32.151Z,95.10
2022-08-31T12:11:11.654Z,95.10
2022-08-31T12:13:53.859Z,95.10
2022-08-31T12:16:53.379Z,95.00
2022-08-31T12:20:00.969Z,95.00
2022-08-31T12:23:10.271Z,94.50
2022-08-31T12:25:49.656Z,94.20
2022-08-31T12:28:29.522Z,94.40
2022-08-31T12:31:07.852Z,94.70
2022-08-31T12:33:43.917Z,94.50
2022-08-31T12:36:17.907Z,94.50
2022-08-31T12:39:09.585Z,94.50
2022-08-31T12:41:45.731Z,94.50
2022-08-31T12:44:24.761Z,94.30
2022-08-31T12:47:05.934Z,94.30
2022-08-31T12:49:57.434Z,94.10
2022-08-31T12:52:44.496Z,94.30
2022-08-31T12:55:38.092Z,93.70
2022-08-31T12:58:28.510Z,93.50
2022-08-31T13:01:11.179Z,93.60
2022-08-31T13:03:54.226Z,93.80
2022-08-31T13:06:34.531Z,93.80
2022-08-31T13:09:08.778Z,93.60
2022-08-31T13:11:45.134Z,93.60
2022-08-31T13:14:20.878Z,93.60
2022-08-31T13:16:54.625Z,93.60
2022-08-31T13:19:29.795Z,93.30
2022-08-31T13:22:05.940Z,93.30
2022-08-31T13:24:41.430Z,93.50
2022-08-31T13:27:22.137Z,93.50
2022-08-31T13:29:57.297Z,93.40
2022-08-31T13:32:37.199Z,93.50
2022-08-31T13:35:15.531Z,93.20
2022-08-31T13:37:53.065Z,93.40
2022-08-31T13:40:28.695Z,93.60
2022-08-31T13:43:03.261Z,93.70
2022-08-31T13:45:36.954Z,93.40
2022-08-31T13:48:10.608Z,93.40
2022-08-31T13:50:52.603Z,93.20
2022-08-31T13:53:45.227Z,93.20
2022-08-31T13:56:50.565Z,93.50
2022-08-31T13:59:39.057Z,93.50
2022-08-31T14:02:37.611Z,93.30
2022-08-31T14:05:13.248Z,93.20
2022-08-31T14:08:07.470Z,92.70
2022-08-31T14:10:42.360Z,92.50
2022-08-31T14:13:25.366Z,92.60
2022-08-31T14:16:02.605Z,92.70
2022-08-31T14:18:41.379Z,92.40
2022-08-31T14:21:24.158Z,92.30
2022-08-31T14:24:01.521Z,92.60
2022-08-31T14:26:35.114Z,92.40
2022-08-31T14:29:11.062Z,92.40
2022-08-31T14:31:49.815Z,92.40
2022-08-31T14:34:26.700Z,92.20
2022-08-31T14:37:02.655Z,92.10
2022-08-31T14:39:36.339Z,92.00
2022-08-31T14:42:10.313Z,92.20
2022-08-31T14:44:44.329Z,92.30
2022-08-31T14:47:18.006Z,91.90
2022-08-31T14:49:50.793Z,91.70
2022-08-31T14:52:22.042Z,91.50
2022-08-31T14:55:04.075Z,92.10
2022-08-31T14:57:36.590Z,91.40
2022-08-31T15:00:10.051Z,91.30
2022-08-31T15:02:44.012Z,91.20
2022-08-31T15:05:18.272Z,91.10
2022-08-31T15:07:49.432Z,91.20
2022-08-31T15:10:23.085Z,91.30
2022-08-31T15:12:53.936Z,91.40
2022-08-31T15:15:26.680Z,91.40
2022-08-31T15:18:03.470Z,91.20
2022-08-31T15:20:42.181Z,91.30
2022-08-31T15:23:16.270Z,91.30
2022-08-31T15:25:48.857Z,91.10
2022-08-31T15:28:19.513Z,91.40
2022-08-31T15:30:52.153Z,91.60
2022-08-31T15:33:25.782Z,91.70
2022-08-31T15:36:07.640Z,91.40
2022-08-31T15:38:39.131Z,91.70
2022-08-31T15:41:12.320Z,91.60
2022-08-31T15:43:46.022Z,91.80
2022-08-31T15:46:17.173Z,91.70
2022-08-31T15:48:49.472Z,91.60
2022-08-31T15:51:27.858Z,91.00
2022-08-31T15:54:21.146Z,91.00
2022-08-31T15:56:52.704Z,91.10
2022-08-31T15:59:25.857Z,91.10
2022-08-31T16:01:56.340Z,90.80
2022-08-31T16:04:29.826Z,90.90
2022-08-31T16:07:01.036Z,90.90
2022-08-31T16:09:34.710Z,90.70
2022-08-31T16:12:05.584Z,90.90
2022-08-31T16:14:38.586Z,91.00
2022-08-31T16:17:09.616Z,91.10
2022-08-31T16:19:57.813Z,90.80
2022-08-31T16:22:32.885Z,90.50
2022-08-31T16:25:14.292Z,90.70
2022-08-31T16:27:44.794Z,90.60
2022-08-31T16:30:16.914Z,90.80
2022-08-31T16:32:52.147Z,90.50
2022-08-31T16:35:25.577Z,90.70
2022-08-31T16:37:56.106Z,90.90
2022-08-31T16:40:26.521Z,90.80
2022-08-31T16:42:56.838Z,91.10
2022-08-31T16:45:27.174Z,91.00
2022-08-31T16:48:17.574Z,91.00
2022-08-31T16:50:48.868Z,90.70
2022-08-31T16:53:19.974Z,90.50
2022-08-31T16:55:50.335Z,90.40
2022-08-31T16:58:40.680Z,90.50
2022-08-31T17:01:13.420Z,90.50
2022-08-31T17:03:46.917Z,90.90
2022-08-31T17:06:20.568Z,90.60
2022-08-31T17:08:52.220Z,90.20
2022-08-31T17:11:25.432Z,90.30
2022-08-31T17:13:59.811Z,90.70
2022-08-31T17:16:32.483Z,90.50
2022-08-31T17:19:06.631Z,90.50
2022-08-31T17:21:49.861Z,90.60
2022-08-31T17:24:24.349Z,90.70
2022-08-31T17:26:57.499Z,90.60
2022-08-31T17:29:30.944Z,90.70
2022-08-31T17:32:03.671Z,90.70
2022-08-31T17:34:35.766Z,90.90
2022-08-31T17:37:11.530Z,91.00
2022-08-31T17:39:42.235Z,91.10
2022-08-31T17:42:15.305Z,91.10
2022-08-31T17:44:48.269Z,91.00
2022-08-31T17:47:18.814Z,91.20
2022-08-31T17:49:51.122Z,90.90
2022-08-31T17:52:24.491Z,90.90
2022-08-31T17:54:55.457Z,91.10
2022-08-31T17:57:28.137Z,91.20
2022-08-31T17:59:58.661Z,91.40
2022-08-31T18:02:34.956Z,91.50
2022-08-31T18:05:09.555Z,91.50
2022-08-31T18:07:45.035Z,91.40
2022-08-31T18:10:15.593Z,91.40
2022-08-31T18:12:47.677Z,91.60
2022-08-31T18:15:19.156Z,91.60
2022-08-31T18:17:49.647Z,91.60
2022-08-31T18:20:20.235Z,91.60
2022-08-31T18:22:53.415Z,91.70
2022-08-31T18:25:31.601Z,91.70
2022-08-31T18:28:17.449Z,91.90
2022-08-31T18:30:51.819Z,91.90
2022-08-31T18:33:22.733Z,92.00
2022-08-31T18:35:53.115Z,92.00
2022-08-31T18:38:26.319Z,92.10
2022-08-31T18:41:10.801Z,92.10
2022-08-31T18:43:53.604Z,92.20
2022-08-31T18:46:27.450Z,92.30
2022-08-31T18:49:11.480Z,92.40
2022-08-31T18:51:46.439Z,92.30
2022-08-31T18:54:19.786Z,92.20
2022-08-31T18:56:50.830Z,92.50
2022-08-31T18:59:22.199Z,92.50
2022-08-31T19:01:52.626Z,92.50
2022-08-31T19:04:23.197Z,92.50
2022-08-31T19:06:53.718Z,92.70
2022-08-31T19:09:26.843Z,92.70
2022-08-31T19:12:02.302Z,92.70
2022-08-31T19:14:36.043Z,92.70
2022-08-31T19:17:08.551Z,93.00
2022-08-31T19:19:39.114Z,93.20
2022-08-31T19:22:09.775Z,93.40
2022-08-31T19:24:43.112Z,93.30
2022-08-31T19:27:14.209Z,93.30
2022-08-31T19:29:45.210Z,93.20
2022-08-31T19:32:15.565Z,93.10
2022-08-31T19:34:48.230Z,93.50
2022-08-31T19:37:18.923Z,93.00
2022-08-31T19:39:53.094Z,92.90
2022-08-31T19:42:40.185Z,93.10
2022-08-31T19:45:40.699Z,93.00
2022-08-31T19:48:03.085Z,93.00
2022-08-31T19:50:42.521Z,93.10
2022-08-31T19:53:14.074Z,93.00
2022-08-31T19:55:58.365Z,92.90
2022-08-31T19:58:28.676Z,92.80
2022-08-31T20:01:01.321Z,93.00
2022-08-31T20:03:34.341Z,92.80
2022-08-31T20:06:09.082Z,93.10
2022-08-31T20:08:39.635Z,92.90
2022-08-31T20:11:16.074Z,92.70
2022-08-31T20:13:49.819Z,92.80
2022-08-31T20:16:20.987Z,92.80
2022-08-31T20:18:56.731Z,92.70
2022-08-31T20:21:31.239Z,92.50
2022-08-31T20:24:06.093Z,92.80
2022-08-31T20:26:47.336Z,92.50
2022-08-31T20:29:23.329Z,92.60
2022-08-31T20:31:56.341Z,92.60
2022-08-31T20:34:29.415Z,92.40
2022-08-31T20:37:01.387Z,92.50
2022-08-31T20:39:35.495Z,92.50
2022-08-31T20:42:09.153Z,92.50
2022-08-31T20:44:41.100Z,92.50
2022-08-31T20:47:25.694Z,92.40
2022-08-31T20:49:57.878Z,92.40
2022-08-31T20:52:32.300Z,92.40
2022-08-31T20:55:04.060Z,92.20
2022-08-31T20:57:40.233Z,92.30
2022-08-31T21:00:12.409Z,92.30
2022-08-31T21:02:43.462Z,92.20
2022-08-31T21:05:37.080Z,92.40
2022-08-31T21:08:10.344Z,92.20
2022-08-31T21:10:42.106Z,92.00
2022-08-31T21:13:16.350Z,92.10
2022-08-31T21:15:48.230Z,92.00
2022-08-31T21:18:19.860Z,91.90
2022-08-31T21:20:51.743Z,91.90
2022-08-31T21:23:22.343Z,92.20
2022-08-31T21:25:52.632Z,91.80
2022-08-31T21:28:28.291Z,91.90
2022-08-31T21:31:15.582Z,91.70
2022-08-31T21:33:49.814Z,91.70
2022-08-31T21:36:23.431Z,91.80
2022-08-31T21:38:55.164Z,91.80
2022-08-31T21:41:27.062Z,91.80
2022-08-31T21:44:00.842Z,91.70
2022-08-31T21:46:32.927Z,91.80
2022-08-31T21:49:03.989Z,91.80
2022-08-31T21:51:36.214Z,91.80
2022-08-31T21:54:08.878Z,91.80
2022-08-31T21:56:43.773Z,91.80
2022-08-31T21:59:19.586Z,91.70
2022-08-31T22:01:51.249Z,91.80
2022-08-31T22:04:21.955Z,91.90
2022-08-31T22:06:53.921Z,91.80
2022-08-31T22:09:26.518Z,91.90
2022-08-31T22:11:58.804Z,91.90
2022-08-31T22:14:36.009Z,91.90
2022-08-31T22:17:09.458Z,91.90
2022-08-31T22:19:43.141Z,92.10
2022-08-31T22:22:15.260Z,92.00
2022-08-31T22:24:45.720Z,92.00
2022-08-31T22:27:16.159Z,92.00
2022-08-31T22:29:49.914Z,92.10
2022-08-31T22:32:23.077Z,92.20
2022-08-31T22:34:53.442Z,92.20
2022-08-31T22:37:23.807Z,92.10
2022-08-31T22:39:55.447Z,92.40
2022-08-31T22:42:25.727Z,92.40
2022-08-31T22:44:58.825Z,92.30
2022-08-31T22:47:29.183Z,92.20
2022-08-31T22:49:59.567Z,92.40
2022-08-31T22:52:29.937Z,92.30
2022-08-31T22:55:00.543Z,92.30
2022-08-31T22:57:30.957Z,92.40
2022-08-31T23:00:04.429Z,92.20
2022-08-31T23:02:35.190Z,92.30
2022-08-31T23:07:55.241Z,92.30
2022-08-31T23:10:27.208Z,92.20
2022-08-31T23:13:00.768Z,92.30
2022-08-31T23:15:34.426Z,92.30
2022-08-31T23:18:07.984Z,92.40
2022-08-31T23:20:41.343Z,92.60
2022-08-31T23:23:11.983Z,92.30
2022-08-31T23:25:43.136Z,92.50
2022-08-31T23:28:13.478Z,92.60
2022-08-31T23:30:46.890Z,92.30
2022-08-31T23:33:17.359Z,92.80
2022-08-31T23:35:47.837Z,92.80
2022-08-31T23:38:18.253Z,92.90
2022-08-31T23:40:49.326Z,92.90
2022-08-31T23:43:23.211Z,92.80
2022-08-31T23:45:57.897Z,93.00
2022-08-31T23:48:28.253Z,93.00
2022-08-31T23:50:58.609Z,93.00
2022-08-31T23:53:29.059Z,93.20
2022-08-31T23:55:59.315Z,93.20
2022-08-31T23:58:32.037Z,93.20
